createdAt,value
2018-08-18T00:00:59.913Z,18.50
2018-08-18T00:02:00.158Z,18.60
2018-08-18T00:03:00.401Z,18.48
2018-08-18T00:04:00.648Z,18.48
2018-08-18T00:05:00.892Z,18.51
2018-08-18T00:06:01.138Z,18.51
2018-08-18T00:07:01.377Z,18.57
2018-08-18T00:08:01.621Z,18.51
2018-08-18T00:09:01.866Z,18.54
2018-08-18T00:10:02.111Z,18.54
2018-08-18T00:11:02.355Z,18.54
2018-08-18T00:12:02.603Z,18.57
2018-08-18T00:13:02.845Z,18.51
2018-08-18T00:14:03.089Z,18.52
2018-08-18T00:15:03.333Z,18.47
2018-08-18T00:16:03.579Z,18.54
2018-08-18T00:17:03.821Z,18.51
2018-08-18T00:18:04.067Z,18.52
2018-08-18T00:19:04.311Z,18.52
2018-08-18T00:20:04.555Z,18.45
2018-08-18T00:21:04.800Z,18.41
2018-08-18T00:22:05.045Z,18.41
2018-08-18T00:23:05.290Z,18.42
2018-08-18T00:24:05.535Z,18.32
2018-08-18T00:25:05.779Z,18.37
2018-08-18T00:26:06.021Z,18.32
2018-08-18T00:27:06.266Z,18.26
2018-08-18T00:28:06.509Z,18.15
2018-08-18T00:29:06.754Z,18.17
2018-08-18T00:30:06.998Z,18.14
2018-08-18T00:31:07.242Z,18.14
2018-08-18T00:32:07.487Z,18.17
2018-08-18T00:33:07.731Z,18.18
2018-08-18T00:34:08.010Z,18.10
2018-08-18T00:35:08.218Z,18.12
2018-08-18T00:36:08.461Z,18.18
2018-08-18T00:37:08.721Z,18.08
2018-08-18T00:38:08.951Z,18.10
2018-08-18T00:39:09.195Z,18.11
2018-08-18T00:40:09.435Z,18.17
2018-08-18T00:41:09.680Z,18.18
2018-08-18T00:42:09.924Z,18.15
2018-08-18T00:43:10.167Z,18.17
2018-08-18T00:44:10.412Z,18.15
2018-08-18T00:45:10.653Z,18.23
2018-08-18T00:46:10.898Z,18.21
2018-08-18T00:47:11.141Z,18.18
2018-08-18T00:48:11.387Z,18.20
2018-08-18T00:49:11.629Z,18.20
2018-08-18T00:50:11.872Z,18.17
2018-08-18T00:51:12.115Z,18.20
2018-08-18T00:52:12.360Z,18.25
2018-08-18T00:53:12.605Z,18.14
2018-08-18T00:54:12.848Z,18.10
2018-08-18T00:55:13.091Z,18.18
2018-08-18T00:56:13.338Z,18.03
2018-08-18T00:57:13.580Z,18.11
2018-08-18T00:58:13.823Z,18.03
2018-08-18T00:59:14.067Z,18.08
2018-08-18T01:00:14.310Z,18.05
2018-08-18T01:01:14.553Z,17.95
2018-08-18T01:02:14.797Z,17.99
2018-08-18T01:03:15.039Z,17.99
2018-08-18T01:04:15.282Z,17.97
2018-08-18T01:05:15.526Z,17.92
2018-08-18T01:06:15.770Z,17.89
2018-08-18T01:07:16.014Z,17.89
2018-08-18T01:08:16.257Z,17.89
2018-08-18T01:09:16.501Z,17.84
2018-08-18T01:10:16.745Z,17.79
2018-08-18T01:11:17.030Z,17.86
2018-08-18T01:12:17.323Z,17.79
2018-08-18T01:13:17.518Z,17.70
2018-08-18T01:14:17.832Z,17.74
2018-08-18T01:15:17.961Z,17.79
2018-08-18T01:16:18.204Z,17.63
2018-08-18T01:17:18.449Z,17.68
2018-08-18T01:18:18.692Z,17.68
2018-08-18T01:19:18.936Z,17.56
2018-08-18T01:20:19.179Z,17.55
2018-08-18T01:21:19.442Z,17.55
2018-08-18T01:22:19.666Z,17.54
2018-08-18T01:23:19.911Z,17.43
2018-08-18T01:24:20.151Z,17.38
2018-08-18T01:25:20.397Z,17.36
2018-08-18T01:26:20.641Z,17.36
2018-08-18T01:27:20.883Z,17.36
2018-08-18T01:28:21.125Z,17.34
2018-08-18T01:29:21.370Z,17.26
2018-08-18T01:30:21.614Z,17.28
2018-08-18T01:31:21.857Z,17.25
2018-08-18T01:32:22.101Z,17.26
2018-08-18T01:33:22.345Z,17.26
2018-08-18T01:34:22.588Z,17.26
2018-08-18T01:35:22.831Z,17.28
2018-08-18T01:36:23.075Z,17.30
2018-08-18T01:37:23.318Z,17.31
2018-08-18T01:38:23.560Z,17.30
2018-08-18T01:39:23.807Z,17.25
2018-08-18T01:40:24.047Z,17.34
2018-08-18T01:41:24.290Z,17.30
2018-08-18T01:42:24.533Z,17.36
2018-08-18T01:43:24.774Z,17.31
2018-08-18T01:44:25.017Z,17.34
2018-08-18T01:45:25.262Z,17.34
2018-08-18T01:46:25.504Z,17.31
2018-08-18T01:47:25.748Z,17.34
2018-08-18T01:48:25.992Z,17.36
2018-08-18T01:49:26.233Z,17.33
2018-08-18T01:50:26.477Z,17.37
2018-08-18T01:51:26.720Z,17.30
2018-08-18T01:52:26.964Z,17.34
2018-08-18T01:53:27.206Z,17.36
2018-08-18T01:54:27.451Z,17.31
2018-08-18T01:55:27.690Z,17.40
2018-08-18T01:56:27.931Z,17.28
2018-08-18T01:57:28.172Z,17.33
2018-08-18T01:58:28.415Z,17.25
2018-08-18T01:59:28.658Z,17.26
2018-08-18T02:00:28.901Z,17.30
2018-08-18T02:01:29.145Z,17.25
2018-08-18T02:02:29.388Z,17.25
2018-08-18T02:03:29.634Z,17.21
2018-08-18T02:04:29.877Z,17.23
2018-08-18T02:05:30.128Z,17.25
2018-08-18T02:06:30.365Z,17.19
2018-08-18T02:07:30.607Z,17.19
2018-08-18T02:08:30.852Z,17.23
2018-08-18T02:09:31.095Z,17.16
2018-08-18T02:10:31.338Z,17.28
2018-08-18T02:11:31.580Z,17.19
2018-08-18T02:12:31.824Z,17.26
2018-08-18T02:13:32.068Z,17.33
2018-08-18T02:14:32.310Z,17.40
2018-08-18T02:15:32.590Z,17.41
2018-08-18T02:16:32.795Z,17.37
2018-08-18T02:17:33.039Z,17.41
2018-08-18T02:18:33.279Z,17.49
2018-08-18T02:19:33.522Z,17.46
2018-08-18T02:20:33.766Z,17.54
2018-08-18T02:21:34.010Z,17.55
2018-08-18T02:22:34.251Z,17.51
2018-08-18T02:23:34.497Z,17.58
2018-08-18T02:24:34.746Z,17.55
2018-08-18T02:25:34.984Z,17.68
2018-08-18T02:26:35.228Z,17.63
2018-08-18T02:27:35.474Z,17.70
2018-08-18T02:28:35.717Z,17.68
2018-08-18T02:29:35.960Z,17.75
2018-08-18T02:30:36.204Z,17.77
2018-08-18T02:31:36.448Z,17.72
2018-08-18T02:32:36.691Z,17.86
2018-08-18T02:33:36.936Z,17.79
2018-08-18T02:34:37.179Z,17.84
2018-08-18T02:35:37.427Z,17.71
2018-08-18T02:36:37.666Z,17.70
2018-08-18T02:37:37.909Z,17.75
2018-08-18T02:38:38.153Z,17.68
2018-08-18T02:39:38.396Z,17.66
2018-08-18T02:40:38.640Z,17.64
2018-08-18T02:41:38.884Z,17.71
2018-08-18T02:42:39.128Z,17.74
2018-08-18T02:43:39.372Z,17.68
2018-08-18T02:44:39.616Z,17.64
2018-08-18T02:45:39.861Z,17.66
2018-08-18T02:46:40.106Z,17.70
2018-08-18T02:47:40.347Z,17.72
2018-08-18T02:48:40.590Z,17.64
2018-08-18T02:49:40.835Z,17.70
2018-08-18T02:50:41.078Z,17.59
2018-08-18T02:51:41.320Z,17.55
2018-08-18T02:52:41.567Z,17.56
2018-08-18T02:53:41.807Z,17.46
2018-08-18T02:54:42.054Z,17.44
2018-08-18T02:55:42.297Z,17.43
2018-08-18T02:56:42.545Z,17.34
2018-08-18T02:57:42.786Z,17.33
2018-08-18T02:58:43.028Z,17.28
2018-08-18T02:59:43.269Z,17.31
2018-08-18T03:00:43.512Z,17.28
2018-08-18T03:01:43.757Z,17.34
2018-08-18T03:02:44.004Z,17.40
2018-08-18T03:03:44.243Z,17.34
2018-08-18T03:04:44.487Z,17.33
2018-08-18T03:05:44.728Z,17.34
2018-08-18T03:06:44.978Z,17.40
2018-08-18T03:07:45.254Z,17.37
2018-08-18T03:08:45.459Z,17.37
2018-08-18T03:09:45.703Z,17.34
2018-08-18T03:10:45.948Z,17.38
2018-08-18T03:11:46.191Z,17.34
2018-08-18T03:12:46.434Z,17.33
2018-08-18T03:13:46.678Z,17.37
2018-08-18T03:14:46.922Z,17.25
2018-08-18T03:15:47.166Z,17.30
2018-08-18T03:16:47.410Z,17.28
2018-08-18T03:17:47.654Z,17.26
2018-08-18T03:18:47.897Z,17.26
2018-08-18T03:19:48.142Z,17.30
2018-08-18T03:20:48.385Z,17.28
2018-08-18T03:21:48.628Z,17.22
2018-08-18T03:22:48.871Z,17.21
2018-08-18T03:23:49.116Z,17.25
2018-08-18T03:24:49.358Z,17.11
2018-08-18T03:25:49.601Z,17.07
2018-08-18T03:26:49.846Z,17.06
2018-08-18T03:27:50.090Z,16.96
2018-08-18T03:28:50.334Z,16.86
2018-08-18T03:29:50.579Z,16.85
2018-08-18T03:30:50.823Z,16.82
2018-08-18T03:31:51.067Z,16.79
2018-08-18T03:32:51.310Z,16.78
2018-08-18T03:33:51.554Z,16.75
2018-08-18T03:34:51.797Z,16.64
2018-08-18T03:35:52.042Z,16.68
2018-08-18T03:36:52.284Z,16.64
2018-08-18T03:37:52.528Z,16.61
2018-08-18T03:38:52.771Z,16.60
2018-08-18T03:39:53.014Z,16.60
2018-08-18T03:40:53.260Z,16.66
2018-08-18T03:41:53.503Z,16.63
2018-08-18T03:42:53.748Z,16.60
2018-08-18T03:43:53.990Z,16.58
2018-08-18T03:44:54.235Z,16.57
2018-08-18T03:45:54.478Z,16.53
2018-08-18T03:46:54.725Z,16.52
2018-08-18T03:47:54.966Z,16.53
2018-08-18T03:48:55.208Z,16.58
2018-08-18T03:49:55.453Z,16.56
2018-08-18T03:50:55.696Z,16.57
2018-08-18T03:51:55.939Z,16.63
2018-08-18T03:52:56.182Z,16.64
2018-08-18T03:53:56.429Z,16.58
2018-08-18T03:54:56.670Z,16.61
2018-08-18T03:55:56.913Z,16.58
2018-08-18T03:56:57.158Z,16.75
2018-08-18T03:57:57.402Z,16.76
2018-08-18T03:58:57.646Z,16.75
2018-08-18T03:59:57.889Z,16.82
2018-08-18T04:00:58.133Z,16.86
2018-08-18T04:01:58.467Z,16.81
2018-08-18T04:02:58.618Z,16.82
2018-08-18T04:03:58.862Z,16.85
2018-08-18T04:04:59.108Z,16.91
2018-08-18T04:05:59.351Z,16.82
2018-08-18T04:06:59.594Z,16.91
2018-08-18T04:07:59.837Z,16.89
2018-08-18T04:09:00.083Z,16.93
2018-08-18T04:10:00.323Z,16.89
2018-08-18T04:11:00.567Z,16.91
2018-08-18T04:12:00.812Z,16.91
2018-08-18T04:13:01.054Z,16.94
2018-08-18T04:14:01.302Z,17.00
2018-08-18T04:15:01.542Z,17.06
2018-08-18T04:16:01.787Z,17.04
2018-08-18T04:17:02.029Z,17.11
2018-08-18T04:18:02.275Z,16.98
2018-08-18T04:19:02.606Z,17.07
2018-08-18T04:20:02.761Z,17.08
2018-08-18T04:21:03.006Z,17.11
2018-08-18T04:22:03.249Z,17.21
2018-08-18T04:23:03.493Z,17.19
2018-08-18T04:24:03.737Z,17.21
2018-08-18T04:25:03.985Z,17.16
2018-08-18T04:26:04.226Z,17.19
2018-08-18T04:27:04.470Z,17.21
2018-08-18T04:28:04.713Z,17.22
2018-08-18T04:29:04.957Z,17.22
2018-08-18T04:30:05.203Z,17.15
2018-08-18T04:31:05.448Z,17.12
2018-08-18T04:32:05.691Z,17.15
2018-08-18T04:33:05.936Z,17.03
2018-08-18T04:34:06.180Z,17.06
2018-08-18T04:35:06.444Z,17.06
2018-08-18T04:36:06.669Z,17.03
2018-08-18T04:37:06.911Z,16.97
2018-08-18T04:38:07.154Z,16.91
2018-08-18T04:39:07.397Z,16.97
2018-08-18T04:40:07.642Z,16.91
2018-08-18T04:41:07.888Z,16.96
2018-08-18T04:42:08.134Z,16.85
2018-08-18T04:43:08.375Z,16.93
2018-08-18T04:44:08.617Z,16.93
2018-08-18T04:45:08.864Z,16.97
2018-08-18T04:46:09.108Z,16.88
2018-08-18T04:47:09.351Z,16.88
2018-08-18T04:48:09.595Z,16.88
2018-08-18T04:49:09.839Z,16.91
2018-08-18T04:50:10.084Z,16.96
2018-08-18T04:51:10.327Z,16.88
2018-08-18T04:52:10.572Z,16.88
2018-08-18T04:53:10.814Z,16.88
2018-08-18T04:54:11.061Z,16.88
2018-08-18T04:55:11.301Z,16.94
2018-08-18T04:56:11.544Z,16.91
2018-08-18T04:57:11.788Z,16.94
2018-08-18T04:58:12.034Z,16.96
2018-08-18T04:59:12.295Z,16.98
2018-08-18T05:00:12.521Z,16.91
2018-08-18T05:01:12.763Z,17.01
2018-08-18T05:02:13.006Z,16.97
2018-08-18T05:03:13.251Z,17.01
2018-08-18T05:04:13.495Z,17.04
2018-08-18T05:05:13.761Z,17.07
2018-08-18T05:06:13.982Z,17.08
2018-08-18T05:07:14.226Z,17.03
2018-08-18T05:08:14.471Z,17.01
2018-08-18T05:09:14.723Z,17.11
2018-08-18T05:10:14.958Z,17.15
2018-08-18T05:11:15.205Z,17.19
2018-08-18T05:12:15.446Z,17.19
2018-08-18T05:13:15.690Z,17.23
2018-08-18T05:14:15.931Z,17.23
2018-08-18T05:15:16.176Z,17.23
2018-08-18T05:16:16.420Z,17.28
2018-08-18T05:17:16.664Z,17.26
2018-08-18T05:18:16.908Z,17.25
2018-08-18T05:19:17.299Z,17.26
2018-08-18T05:20:17.395Z,17.33
2018-08-18T05:21:17.638Z,17.31
2018-08-18T05:22:17.884Z,17.38
2018-08-18T05:23:18.123Z,17.38
2018-08-18T05:24:18.369Z,17.34
2018-08-18T05:25:18.612Z,17.38
2018-08-18T05:26:18.858Z,17.46
2018-08-18T05:27:19.100Z,17.56
2018-08-18T05:28:19.346Z,17.62
2018-08-18T05:29:19.587Z,17.62
2018-08-18T05:30:19.833Z,17.74
2018-08-18T05:31:20.075Z,17.84
2018-08-18T05:32:20.320Z,17.87
2018-08-18T05:33:20.564Z,17.86
2018-08-18T05:34:20.808Z,17.89
2018-08-18T05:35:21.050Z,17.92
2018-08-18T05:36:21.327Z,18.05
2018-08-18T05:37:21.540Z,18.00
2018-08-18T05:38:21.784Z,18.05
2018-08-18T05:39:22.028Z,18.14
2018-08-18T05:40:22.271Z,18.17
2018-08-18T05:41:22.517Z,18.29
2018-08-18T05:42:22.760Z,18.36
2018-08-18T05:43:23.005Z,18.30
2018-08-18T05:44:23.248Z,18.29
2018-08-18T05:45:23.494Z,18.48
2018-08-18T05:46:23.739Z,18.41
2018-08-18T05:47:24.010Z,18.54
2018-08-18T05:48:24.227Z,18.50
2018-08-18T05:49:24.472Z,18.50
2018-08-18T05:50:24.721Z,18.57
2018-08-18T05:51:24.960Z,18.54
2018-08-18T05:52:25.204Z,18.63
2018-08-18T05:53:25.447Z,18.80
2018-08-18T05:54:25.695Z,18.73
2018-08-18T05:55:25.938Z,18.92
2018-08-18T05:56:26.182Z,18.82
2018-08-18T05:57:26.426Z,19.00
2018-08-18T05:58:26.673Z,19.11
2018-08-18T05:59:26.915Z,19.14
2018-08-18T06:00:27.171Z,19.19
2018-08-18T06:01:27.403Z,19.25
2018-08-18T06:02:27.648Z,19.22
2018-08-18T06:03:27.893Z,19.44
2018-08-18T06:04:28.139Z,19.62
2018-08-18T06:05:28.383Z,19.63
2018-08-18T06:06:28.628Z,19.81
2018-08-18T06:07:28.873Z,19.80
2018-08-18T06:08:29.222Z,19.95
2018-08-18T06:09:29.560Z,19.92
2018-08-18T06:10:29.810Z,20.11
2018-08-18T06:11:30.047Z,20.10
2018-08-18T06:12:30.309Z,20.29
2018-08-18T06:13:30.624Z,20.42
2018-08-18T06:14:30.785Z,20.72
2018-08-18T06:15:31.130Z,21.03
2018-08-18T06:16:31.384Z,21.17
2018-08-18T06:17:31.625Z,21.28
2018-08-18T06:18:31.972Z,21.49
2018-08-18T06:19:32.174Z,21.71
2018-08-18T06:20:32.423Z,21.72
2018-08-18T06:21:32.772Z,21.74
2018-08-18T06:22:33.032Z,21.77
2018-08-18T06:23:33.273Z,21.67
2018-08-18T06:24:33.541Z,21.75
2018-08-18T06:25:33.909Z,21.72
2018-08-18T06:26:34.141Z,21.71
2018-08-18T06:27:34.384Z,21.67
2018-08-18T06:28:34.693Z,21.77
2018-08-18T06:29:34.934Z,21.75
2018-08-18T06:30:35.281Z,21.72
2018-08-18T06:31:35.682Z,21.80
2018-08-18T06:32:36.072Z,21.80
2018-08-18T06:33:36.310Z,21.71
2018-08-18T06:34:36.611Z,21.64
2018-08-18T06:35:37.002Z,21.74
2018-08-18T06:36:37.240Z,21.75
2018-08-18T06:37:37.482Z,21.75
2018-08-18T06:38:37.742Z,21.77
2018-08-18T06:39:37.974Z,21.71
2018-08-18T06:40:38.206Z,21.75
2018-08-18T06:41:38.526Z,21.86
2018-08-18T06:42:38.686Z,21.91
2018-08-18T06:43:38.926Z,21.91
2018-08-18T06:44:39.160Z,21.86
2018-08-18T06:45:39.465Z,21.86
2018-08-18T06:46:39.712Z,21.80
2018-08-18T06:47:39.948Z,21.82
2018-08-18T06:48:40.196Z,21.79
2018-08-18T06:49:41.447Z,21.71
2018-08-18T06:50:40.771Z,21.80
2018-08-18T06:51:41.026Z,21.75
2018-08-18T06:52:41.336Z,21.65
2018-08-18T06:53:41.659Z,21.75
2018-08-18T06:54:41.970Z,21.84
2018-08-18T06:55:42.679Z,21.82
2018-08-18T06:56:42.469Z,21.79
2018-08-18T06:57:42.726Z,21.83
2018-08-18T06:58:42.944Z,21.98
2018-08-18T06:59:43.191Z,21.94
2018-08-18T07:00:43.579Z,21.99
2018-08-18T07:01:43.837Z,22.15
2018-08-18T07:02:44.081Z,22.21
2018-08-18T07:03:44.422Z,22.20
2018-08-18T07:04:44.663Z,22.22
2018-08-18T07:05:44.910Z,22.25
2018-08-18T07:06:45.149Z,22.39
2018-08-18T07:07:45.393Z,22.67
2018-08-18T07:08:45.937Z,22.75
2018-08-18T07:09:45.859Z,22.95
2018-08-18T07:10:46.105Z,22.83
2018-08-18T07:11:46.342Z,22.92
2018-08-18T07:12:46.598Z,22.95
2018-08-18T07:13:46.832Z,23.04
2018-08-18T07:14:47.089Z,22.92
2018-08-18T07:15:47.332Z,22.95
2018-08-18T07:16:47.585Z,22.85
2018-08-18T07:17:47.819Z,22.92
2018-08-18T07:18:48.074Z,22.94
2018-08-18T07:19:48.325Z,23.17
2018-08-18T07:20:48.563Z,23.20
2018-08-18T07:21:48.821Z,23.68
2018-08-18T07:22:49.069Z,23.61
2018-08-18T07:23:49.308Z,23.75
2018-08-18T07:24:49.559Z,24.22
2018-08-18T07:25:49.799Z,24.98
2018-08-18T07:26:50.037Z,25.88
2018-08-18T07:27:50.289Z,26.54
2018-08-18T07:28:50.701Z,27.22
2018-08-18T07:29:50.824Z,27.50
2018-08-18T07:30:51.029Z,27.85
2018-08-18T07:31:51.260Z,28.30
2018-08-18T07:32:51.505Z,28.58
2018-08-18T07:33:51.760Z,28.89
2018-08-18T07:34:52.011Z,29.04
2018-08-18T07:35:52.258Z,29.02
2018-08-18T07:36:52.520Z,29.30
2018-08-18T07:37:52.764Z,29.51
2018-08-18T07:38:53.006Z,29.37
2018-08-18T07:39:53.265Z,29.82
2018-08-18T07:40:53.507Z,29.94
2018-08-18T07:41:53.767Z,29.37
2018-08-18T07:42:54.007Z,29.14
2018-08-18T07:43:54.263Z,29.28
2018-08-18T07:44:54.504Z,29.57
2018-08-18T07:45:54.747Z,29.87
2018-08-18T07:46:54.998Z,30.11
2018-08-18T07:47:55.263Z,30.00
2018-08-18T07:48:55.486Z,30.29
2018-08-18T07:49:55.750Z,30.32
2018-08-18T07:50:55.990Z,30.38
2018-08-18T07:51:56.231Z,30.83
2018-08-18T07:52:56.513Z,30.75
2018-08-18T07:53:56.753Z,30.73
2018-08-18T07:54:57.001Z,31.10
2018-08-18T07:55:57.250Z,31.31
2018-08-18T07:56:57.507Z,31.16
2018-08-18T07:57:57.744Z,31.09
2018-08-18T07:58:57.994Z,30.01
2018-08-18T07:59:58.243Z,29.78
2018-08-18T08:00:58.475Z,30.35
2018-08-18T08:01:58.718Z,30.83
2018-08-18T08:02:58.982Z,31.14
2018-08-18T08:03:59.227Z,31.57
2018-08-18T08:04:59.500Z,30.46
2018-08-18T08:05:59.737Z,29.73
2018-08-18T08:06:59.981Z,29.27
2018-08-18T08:08:00.227Z,29.28
2018-08-18T08:09:00.484Z,28.95
2018-08-18T08:10:00.943Z,28.25
2018-08-18T08:11:00.963Z,27.04
2018-08-18T08:12:01.215Z,26.45
2018-08-18T08:13:01.559Z,25.73
2018-08-18T08:14:01.718Z,25.55
2018-08-18T08:15:01.970Z,25.54
2018-08-18T08:16:02.222Z,26.06
2018-08-18T08:17:02.473Z,26.54
2018-08-18T08:18:02.773Z,27.60
2018-08-18T08:19:02.982Z,28.58
2018-08-18T08:20:03.230Z,29.12
2018-08-18T08:21:03.482Z,29.80
2018-08-18T08:22:03.740Z,30.04
2018-08-18T08:23:03.989Z,30.64
2018-08-18T08:24:04.244Z,31.01
2018-08-18T08:25:04.492Z,31.25
2018-08-18T08:26:04.743Z,31.44
2018-08-18T08:27:04.999Z,31.76
2018-08-18T08:28:05.252Z,32.28
2018-08-18T08:29:05.505Z,32.50
2018-08-18T08:30:05.759Z,32.56
2018-08-18T08:31:06.013Z,32.32
2018-08-18T08:32:06.267Z,31.96
2018-08-18T08:33:06.508Z,31.91
2018-08-18T08:34:06.802Z,32.10
2018-08-18T08:35:07.052Z,32.29
2018-08-18T08:36:07.304Z,32.47
2018-08-18T08:37:07.557Z,32.81
2018-08-18T08:38:07.807Z,32.30
2018-08-18T08:39:08.057Z,32.78
2018-08-18T08:40:08.316Z,32.93
2018-08-18T08:41:08.569Z,32.48
2018-08-18T08:42:08.822Z,32.67
2018-08-18T08:43:09.127Z,32.32
2018-08-18T08:44:09.324Z,31.17
2018-08-18T08:45:09.578Z,31.14
2018-08-18T08:46:09.830Z,31.68
2018-08-18T08:47:10.087Z,31.93
2018-08-18T08:48:10.340Z,32.00
2018-08-18T08:49:10.689Z,32.19
2018-08-18T08:50:10.851Z,32.04
2018-08-18T08:51:11.104Z,32.57
2018-08-18T08:52:11.359Z,32.10
2018-08-18T08:53:11.604Z,31.66
2018-08-18T08:54:11.869Z,31.89
2018-08-18T08:55:12.126Z,32.38
2018-08-18T08:56:12.378Z,32.35
2018-08-18T08:57:12.630Z,32.77
2018-08-18T08:58:12.885Z,32.30
2018-08-18T08:59:13.138Z,32.10
2018-08-18T09:00:13.393Z,30.99
2018-08-18T09:01:13.649Z,28.61
2018-08-18T09:02:13.903Z,28.15
2018-08-18T09:03:14.167Z,28.77
2018-08-18T09:04:14.413Z,29.89
2018-08-18T09:05:14.669Z,30.11
2018-08-18T09:06:14.924Z,31.02
2018-08-18T09:07:15.173Z,30.42
2018-08-18T09:08:15.430Z,29.08
2018-08-18T09:09:15.685Z,30.22
2018-08-18T09:10:15.997Z,31.16
2018-08-18T09:11:16.195Z,32.23
2018-08-18T09:12:16.448Z,32.92
2018-08-18T09:13:16.703Z,33.19
2018-08-18T09:14:16.957Z,32.88
2018-08-18T09:15:17.212Z,31.75
2018-08-18T09:16:17.461Z,32.44
2018-08-18T09:17:17.714Z,32.33
2018-08-18T09:18:17.972Z,32.45
2018-08-18T09:19:18.225Z,32.93
2018-08-18T09:20:18.480Z,33.37
2018-08-18T09:21:18.735Z,33.73
2018-08-18T09:22:18.990Z,34.47
2018-08-18T09:23:19.245Z,34.66
2018-08-18T09:24:19.500Z,34.97
2018-08-18T09:25:19.760Z,35.36
2018-08-18T09:26:20.063Z,35.31
2018-08-18T09:27:20.268Z,35.11
2018-08-18T09:28:20.524Z,33.69
2018-08-18T09:29:20.780Z,33.01
2018-08-18T09:30:21.038Z,32.70
2018-08-18T09:31:21.295Z,31.95
2018-08-18T09:32:21.551Z,30.82
2018-08-18T09:33:21.807Z,29.92
2018-08-18T09:34:22.065Z,29.41
2018-08-18T09:35:22.320Z,28.64
2018-08-18T09:36:22.629Z,29.02
2018-08-18T09:37:22.831Z,28.95
2018-08-18T09:38:23.090Z,29.39
2018-08-18T09:39:23.346Z,29.82
2018-08-18T09:40:23.600Z,29.83
2018-08-18T09:41:23.855Z,29.70
2018-08-18T09:42:24.113Z,28.73
2018-08-18T09:43:24.367Z,28.22
2018-08-18T09:44:24.623Z,28.36
2018-08-18T09:45:33.938Z,28.14
2018-08-18T09:46:34.871Z,27.99
2018-08-18T09:47:26.356Z,28.03
2018-08-18T09:48:35.829Z,28.15
2018-08-18T09:49:26.143Z,27.99
2018-08-18T09:50:26.139Z,27.84
2018-08-18T09:53:42.818Z,28.18
2018-08-18T09:54:43.014Z,28.66
2018-08-18T09:55:45.121Z,30.82
2018-08-18T09:56:44.834Z,32.03
2018-08-18T09:57:46.294Z,32.37
2018-08-18T09:58:44.028Z,31.73
2018-08-18T09:59:44.271Z,31.19
2018-08-18T10:00:44.711Z,30.82
2018-08-18T10:01:45.919Z,30.00
2018-08-18T10:02:44.974Z,29.43
2018-08-18T10:03:45.212Z,29.26
2018-08-18T10:04:45.460Z,29.08
2018-08-18T10:05:45.699Z,28.70
2018-08-18T10:06:46.005Z,28.67
2018-08-18T10:07:46.191Z,28.73
2018-08-18T10:08:46.433Z,28.80
2018-08-18T10:09:46.686Z,28.95
2018-08-18T10:10:47.003Z,29.45
2018-08-18T10:11:47.170Z,30.97
2018-08-18T10:12:47.437Z,32.25
2018-08-18T10:13:47.678Z,33.35
2018-08-18T10:14:47.942Z,32.96
2018-08-18T10:15:48.185Z,32.56
2018-08-18T10:16:48.427Z,32.74
2018-08-18T10:17:48.670Z,32.59
2018-08-18T10:18:48.946Z,32.70
2018-08-18T10:19:49.176Z,32.55
2018-08-18T10:20:49.462Z,33.29
2018-08-18T10:21:49.716Z,32.57
2018-08-18T10:22:50.067Z,31.70
2018-08-18T10:24:09.010Z,33.18
2018-08-18T10:24:50.608Z,32.50
2018-08-18T10:25:50.887Z,33.01
2018-08-18T10:26:51.101Z,32.85
2018-08-18T10:27:51.354Z,31.53
2018-08-18T10:28:51.603Z,30.29
2018-08-18T10:29:51.860Z,29.76
2018-08-18T10:30:52.110Z,29.58
2018-08-18T10:31:54.634Z,29.57
2018-08-18T10:32:52.873Z,30.61
2018-08-18T10:33:53.124Z,29.86
2018-08-18T10:34:53.378Z,29.97
2018-08-18T10:35:53.694Z,29.94
2018-08-18T10:36:53.979Z,30.01
2018-08-18T10:37:54.253Z,29.76
2018-08-18T10:38:54.515Z,29.95
2018-08-18T10:39:54.765Z,31.38
2018-08-18T10:40:55.036Z,32.75
2018-08-18T10:41:55.316Z,32.92
2018-08-18T10:42:55.556Z,32.40
2018-08-18T10:43:55.810Z,32.48
2018-08-18T10:44:56.111Z,33.39
2018-08-18T10:45:56.350Z,34.02
2018-08-18T10:47:05.277Z,34.30
2018-08-18T10:47:56.981Z,34.75
2018-08-18T10:48:57.226Z,35.63
2018-08-18T10:49:57.488Z,35.89
2018-08-18T10:50:57.741Z,35.87
2018-08-18T10:51:57.980Z,35.53
2018-08-18T10:52:58.272Z,34.53
2018-08-18T10:53:58.484Z,35.82
2018-08-18T10:54:58.738Z,35.22
2018-08-18T10:55:58.988Z,34.09
2018-08-18T10:56:59.249Z,33.15
2018-08-18T10:57:59.541Z,32.35
2018-08-18T10:58:59.803Z,32.07
2018-08-18T11:00:00.024Z,31.93
2018-08-18T11:01:00.307Z,31.69
2018-08-18T11:02:00.525Z,31.26
2018-08-18T11:03:00.783Z,30.60
2018-08-18T11:04:01.066Z,30.58
2018-08-18T11:05:01.295Z,30.17
2018-08-18T11:06:01.532Z,30.00
2018-08-18T11:07:01.789Z,30.57
2018-08-18T11:08:02.045Z,32.11
2018-08-18T11:09:02.291Z,33.38
2018-08-18T11:10:02.574Z,34.56
2018-08-18T11:11:02.801Z,35.03
2018-08-18T11:12:03.051Z,35.36
2018-08-18T11:13:03.303Z,35.36
2018-08-18T11:14:03.555Z,35.50
2018-08-18T11:15:03.815Z,35.89
2018-08-18T11:16:04.071Z,36.20
2018-08-18T11:17:04.351Z,36.72
2018-08-18T11:18:04.623Z,36.22
2018-08-18T11:19:04.877Z,36.47
2018-08-18T11:20:05.129Z,36.81
2018-08-18T11:21:05.388Z,37.37
2018-08-18T11:22:05.644Z,37.40
2018-08-18T11:23:05.905Z,36.44
2018-08-18T11:24:06.176Z,35.82
2018-08-18T11:26:39.629Z,35.25
2018-08-18T11:27:39.800Z,34.94
2018-08-18T11:28:40.165Z,34.19
2018-08-18T11:29:40.309Z,35.22
2018-08-18T11:30:40.555Z,35.84
2018-08-18T11:31:40.839Z,36.23
2018-08-18T11:32:41.158Z,36.64
2018-08-18T11:33:41.500Z,36.68
2018-08-18T11:34:41.705Z,37.59
2018-08-18T11:35:42.541Z,36.90
2018-08-18T11:36:42.385Z,36.22
2018-08-18T11:37:42.692Z,36.09
2018-08-18T11:38:42.973Z,35.75
2018-08-18T11:39:43.244Z,35.72
2018-08-18T11:40:43.574Z,35.89
2018-08-18T11:41:43.828Z,36.08
2018-08-18T11:42:44.105Z,36.12
2018-08-18T11:43:44.377Z,35.71
2018-08-18T11:44:44.600Z,35.81
2018-08-18T11:45:45.066Z,36.44
2018-08-18T11:46:45.114Z,36.47
2018-08-18T11:47:45.360Z,35.99
2018-08-18T11:48:45.680Z,36.60
2018-08-18T11:49:45.856Z,36.84
2018-08-18T11:50:46.189Z,37.07
2018-08-18T11:51:46.418Z,37.82
2018-08-18T11:52:46.674Z,37.85
2018-08-18T11:53:46.956Z,37.96
2018-08-18T11:54:47.211Z,37.81
2018-08-18T11:55:47.469Z,38.40
2018-08-18T11:56:47.727Z,37.66
2018-08-18T11:57:47.977Z,37.43
2018-08-18T11:58:48.238Z,36.44
2018-08-18T11:59:48.496Z,36.81
2018-08-18T12:00:48.753Z,37.25
2018-08-18T12:01:49.027Z,37.27
2018-08-18T12:02:49.282Z,37.20
2018-08-18T12:03:49.529Z,37.13
2018-08-18T12:04:49.789Z,37.63
2018-08-18T12:05:50.048Z,35.47
2018-08-18T12:06:50.301Z,34.17
2018-08-18T12:07:50.554Z,32.45
2018-08-18T12:08:50.816Z,31.88
2018-08-18T12:09:51.061Z,30.73
2018-08-18T12:10:51.461Z,30.92
2018-08-18T12:11:51.581Z,32.19
2018-08-18T12:12:51.869Z,33.72
2018-08-18T12:13:52.122Z,33.38
2018-08-18T12:14:52.369Z,32.70
2018-08-18T12:15:52.627Z,32.50
2018-08-18T12:16:52.882Z,32.38
2018-08-18T12:17:53.133Z,31.92
2018-08-18T12:18:53.381Z,31.47
2018-08-18T12:19:53.624Z,32.01
2018-08-18T12:20:53.891Z,33.35
2018-08-18T12:21:54.155Z,34.05
2018-08-18T12:22:54.407Z,34.49
2018-08-18T12:23:54.656Z,34.59
2018-08-18T12:24:54.909Z,35.06
2018-08-18T12:25:55.170Z,34.34
2018-08-18T12:26:55.459Z,34.66
2018-08-18T12:27:55.721Z,35.50
2018-08-18T12:28:55.976Z,35.96
2018-08-18T12:29:56.363Z,35.96
2018-08-18T12:30:56.480Z,36.76
2018-08-18T12:31:56.738Z,36.72
2018-08-18T12:32:57.003Z,36.44
2018-08-18T12:33:57.281Z,35.52
2018-08-18T12:34:57.570Z,35.55
2018-08-18T12:35:57.801Z,35.96
2018-08-18T12:36:58.216Z,36.51
2018-08-18T12:37:58.316Z,36.91
2018-08-18T12:38:58.577Z,36.84
2018-08-18T12:39:58.820Z,36.23
2018-08-18T12:40:59.080Z,35.70
2018-08-18T12:41:59.337Z,35.53
2018-08-18T12:42:59.595Z,36.25
2018-08-18T12:43:59.852Z,35.15
2018-08-18T12:45:00.110Z,35.53
2018-08-18T12:46:00.367Z,34.02
2018-08-18T12:47:00.626Z,32.97
2018-08-18T12:48:00.880Z,34.32
2018-08-18T12:49:01.140Z,35.45
2018-08-18T12:50:01.434Z,35.23
2018-08-18T12:51:01.649Z,34.43
2018-08-18T12:52:01.902Z,34.44
2018-08-18T12:53:02.160Z,34.03
2018-08-18T12:54:02.417Z,34.13
2018-08-18T12:55:02.673Z,33.76
2018-08-18T12:56:02.931Z,33.82
2018-08-18T12:57:03.189Z,32.29
2018-08-18T12:58:03.481Z,31.93
2018-08-18T12:59:03.703Z,32.84
2018-08-18T13:00:03.952Z,33.31